Sunday, May 27, 2018, 1:28 PM GMT
Back to Local

CWRN, Hart Island Meteorological Aeronautical Presentation System

Location: , , Canada Lat: 45.35
Local Time: 1:28 PM GMT (13:28 GMT) Lon: -60.983
Time Zone: GMT Elev: 13 ft

Show me the last for .
Show Coded

Time T Td Feel RH Dir Speed Gust Alt SLP Vis Weather Sky Remarks
2018-05-27 13:00 47 37 44 67 10° 7 - - 30.29 0 None
2018-05-27 12:00 45 37 39 73 340° 13 - - 30.26 0 None
2018-05-27 11:00 43 36 36 75 320° 14 - - 30.24 0 None
2018-05-27 10:00 41 34 33 74 340° 16 - - 30.22 0 None
2018-05-27 09:00 40 35 32 79 350° 15 - - 30.19 0 Peak wind: 23 mph (20 kts) from 340° at 30 min
2018-05-27 08:00 38 34 29 84 330° 16 - - 30.16 0 Peak wind: 20 mph (18 kts) from 350° at 48 min
2018-05-27 07:00 40 35 31 81 350° 17 - - 30.13 0 Peak wind: 26 mph (23 kts) from 310° at 19 min
2018-05-27 06:00 40 36 31 85 320° 18 - - 30.10 0 Peak wind: 21 mph (19 kts) from 320° at 20 min
2018-05-27 05:00 40 35 31 84 320° 18 - - 30.09 0 Peak wind: 24 mph (21 kts) from 320° at 38 min
2018-05-27 04:00 38 36 28 91 320° 20 - - 30.06 0 Peak wind: 26 mph (23 kts) from 300° at 01 min
2018-05-27 03:00 40 37 30 86 310° 23 - - 30.03 0 Peak wind: 28 mph (25 kts) from 300° at 45 min
2018-05-27 02:00 41 37 31 87 310° 23 - - 30.00 0 Peak wind: 32 mph (28 kts) from 310° at 00 min
2018-05-27 01:00 42 35 31 74 310° 29 35 - 29.96 0 Peak wind: 34 mph (30 kts) from 320° at 55 min
2018-05-27 00:00 45 38 37 77 310° 21 - - 29.92 0 Peak wind: 25 mph (22 kts) from 310° at 04 min
2018-05-26 23:00 45 42 37 88 310° 22 - - 29.87 0 Peak wind: 25 mph (22 kts) from 310° at 56 min
2018-05-26 22:00 46 43 38 89 310° 16 23 - 29.81 0 Peak wind: 23 mph (20 kts) from 310° at 58 min
2018-05-26 21:00 45 42 37 90 310° 17 - - 29.77 0 Peak wind: 19 mph (17 kts) from 310° at 55 min
2018-05-26 20:00 44 42 42 91 320° 5 - - 29.74 0 None
2018-05-26 19:00 43 43 41 97 360° 5 - - 29.71 0 None
2018-05-26 18:00 45 44 41 97 50° 6 - - 29.66 0 None
2018-05-26 17:00 42 42 37 97 10° 10 - - 29.67 0 None
2018-05-26 16:00 45 45 42 97 20° 7 - - 29.67 0 None
2018-05-26 15:00 47 46 41 97 150° 14 - - 29.64 0 None
2018-05-26 14:00 45 45 42 97 90° 7 - - 29.65 0 None

Support USWX by starting your Amazon purchase here.